Time;durP1;ratioP1;P1;durP2;ratioP2;P2;SDS_P1;SDS_P2;PMS_P1;PMS_P2;Temp;Humidity;BMP_temperature;BMP_pressure;BME280_temperature;BME280_humidity;BME280_pressure;Samples;Min_cycle;Max_cycle;Signal;HPM_P1;HPM_P2
2021/09/05 00:00:32;;;;;;;4.70;1.98;;;;;;;;;;5001744;28;20481;-58
2021/09/05 00:02:58;;;;;;;3.22;1.20;;;;;;;;;;5000655;28;20049;-57
2021/09/05 00:05:24;;;;;;;4.28;1.13;;;;;;;;;;5001220;28;20496;-58
2021/09/05 00:07:49;;;;;;;3.67;1.10;;;;;;;;;;5001829;28;20070;-57
2021/09/05 00:10:15;;;;;;;3.05;1.10;;;;;;;;;;5000604;28;20033;-57
2021/09/05 00:12:42;;;;;;;2.90;1.00;;;;;;;;;;5001373;28;20061;-57
2021/09/05 00:15:09;;;;;;;2.80;0.80;;;;;;;;;;5001376;28;20128;-58
2021/09/05 00:17:35;;;;;;;2.58;1.10;;;;;;;;;;5000050;28;20049;-58
2021/09/05 00:20:01;;;;;;;3.25;1.15;;;;;;;;;;5001716;28;20687;-56
2021/09/05 00:22:27;;;;;;;3.95;1.05;;;;;;;;;;4999167;28;20042;-56
2021/09/05 00:24:52;;;;;;;4.97;1.20;;;;;;;;;;5001783;28;21904;-57
2021/09/05 00:27:20;;;;;;;3.20;1.00;;;;;;;;;;5000700;28;20049;-57
2021/09/05 00:29:46;;;;;;;4.03;1.02;;;;;;;;;;5002426;28;20136;-56
2021/09/05 00:32:11;;;;;;;2.75;1.00;;;;;;;;;;4999613;28;20044;-54
2021/09/05 00:34:37;;;;;;;5.35;1.13;;;;;;;;;;5000490;28;20041;-54
2021/09/05 00:37:03;;;;;;;6.57;1.40;;;;;;;;;;5002502;28;20072;-54
2021/09/05 00:39:31;;;;;;;4.78;0.93;;;;;;;;;;5000270;28;20420;-55
2021/09/05 00:41:57;;;;;;;2.95;1.15;;;;;;;;;;5002094;28;20026;-56
2021/09/05 00:44:22;;;;;;;4.70;1.63;;;;;;;;;;5002052;28;20042;-56
2021/09/05 00:46:48;;;;;;;4.97;1.15;;;;;;;;;;5000876;28;20045;-54
2021/09/05 00:49:14;;;;;;;4.00;1.05;;;;;;;;;;5000521;28;20498;-56
2021/09/05 00:51:41;;;;;;;4.13;1.02;;;;;;;;;;4999998;28;20042;-54
2021/09/05 00:54:07;;;;;;;7.38;1.35;;;;;;;;;;5000366;28;20041;-58
2021/09/05 00:56:35;;;;;;;4.40;1.00;;;;;;;;;;5001571;28;20052;-55
2021/09/05 00:59:06;;;;;;;3.28;1.05;;;;;;;;;;5001259;28;20042;-53
2021/09/05 01:01:32;;;;;;;8.02;1.23;;;;;;;;;;4999233;28;20037;-55
2021/09/05 01:03:58;;;;;;;7.85;1.20;;;;;;;;;;4999770;28;20053;-55
2021/09/05 01:06:24;;;;;;;5.18;1.10;;;;;;;;;;5001244;28;20033;-57
2021/09/05 01:08:51;;;;;;;5.65;1.30;;;;;;;;;;5000387;28;20064;-55
2021/09/05 01:11:18;;;;;;;4.95;1.30;;;;;;;;;;4999116;28;20037;-53
2021/09/05 01:13:44;;;;;;;7.07;1.20;;;;;;;;;;4981654;28;20045;-57
2021/09/05 01:16:28;;;;;;;6.07;2.55;;;;;;;;;;5000918;28;20104;-53
2021/09/05 01:18:54;;;;;;;12.45;3.95;;;;;;;;;;5000788;28;20093;-56
2021/09/05 01:21:20;;;;;;;4.75;1.80;;;;;;;;;;4998638;28;20037;-55
2021/09/05 01:23:46;;;;;;;4.97;1.50;;;;;;;;;;4998926;28;20095;-57
2021/09/05 01:26:12;;;;;;;4.88;1.30;;;;;;;;;;5000699;28;20042;-55
2021/09/05 01:28:41;;;;;;;4.78;1.30;;;;;;;;;;5000169;28;20497;-55
2021/09/05 01:31:07;;;;;;;4.45;1.27;;;;;;;;;;5001225;28;20037;-56
2021/09/05 01:33:33;;;;;;;3.47;1.15;;;;;;;;;;4999081;28;20042;-56
2021/09/05 01:36:00;;;;;;;10.38;1.60;;;;;;;;;;4998459;28;20508;-57
2021/09/05 01:38:25;;;;;;;5.38;1.50;;;;;;;;;;4999353;28;20034;-56
2021/09/05 01:40:51;;;;;;;5.68;1.45;;;;;;;;;;4999919;28;20053;-57
2021/09/05 01:43:17;;;;;;;6.53;1.60;;;;;;;;;;5000117;28;20046;-55
2021/09/05 01:45:43;;;;;;;4.53;1.70;;;;;;;;;;4998497;28;20108;-56
2021/09/05 01:48:09;;;;;;;4.55;1.40;;;;;;;;;;4999848;28;20046;-56
2021/09/05 01:50:34;;;;;;;6.70;1.70;;;;;;;;;;5000804;28;20061;-57
2021/09/05 01:53:00;;;;;;;6.28;1.50;;;;;;;;;;4998893;28;20048;-57
2021/09/05 01:55:26;;;;;;;6.35;1.55;;;;;;;;;;4997779;28;20485;-57
2021/09/05 01:57:52;;;;;;;6.13;1.35;;;;;;;;;;4999289;28;20038;-57
2021/09/05 02:00:18;;;;;;;4.47;1.40;;;;;;;;;;4999073;28;20048;-57
2021/09/05 02:02:44;;;;;;;5.70;1.60;;;;;;;;;;4998093;28;20806;-56
2021/09/05 02:05:10;;;;;;;8.13;1.42;;;;;;;;;;4999726;28;20160;-57
2021/09/05 02:07:36;;;;;;;4.63;1.60;;;;;;;;;;4998648;28;20041;-57
2021/09/05 02:10:02;;;;;;;4.93;1.80;;;;;;;;;;4999974;28;20053;-57
2021/09/05 02:12:28;;;;;;;6.10;2.00;;;;;;;;;;4978027;28;20038;-57
2021/09/05 02:14:53;;;;;;;5.28;1.90;;;;;;;;;;4998750;28;20041;-56
2021/09/05 02:17:19;;;;;;;7.22;2.55;;;;;;;;;;4983444;28;20050;-55
2021/09/05 02:19:45;;;;;;;6.75;2.60;;;;;;;;;;4980050;28;20438;-57
2021/09/05 02:22:11;;;;;;;9.93;3.70;;;;;;;;;;4978508;28;20068;-57
2021/09/05 02:24:37;;;;;;;10.55;3.67;;;;;;;;;;4977844;28;20097;-56
2021/09/05 02:27:03;;;;;;;9.48;3.08;;;;;;;;;;4979651;28;20580;-56
2021/09/05 02:29:28;;;;;;;8.32;3.30;;;;;;;;;;4978941;28;20122;-56
2021/09/05 02:31:55;;;;;;;6.13;2.67;;;;;;;;;;4959760;28;20034;-56
2021/09/05 02:34:20;;;;;;;6.35;2.53;;;;;;;;;;4982406;28;20043;-54
2021/09/05 02:36:47;;;;;;;5.53;2.20;;;;;;;;;;4983502;28;20038;-53
2021/09/05 02:39:13;;;;;;;8.43;2.38;;;;;;;;;;4983226;28;20038;-56
2021/09/05 02:41:38;;;;;;;8.20;2.25;;;;;;;;;;4983128;28;20047;-57
2021/09/05 02:44:04;;;;;;;4.85;2.00;;;;;;;;;;4984402;28;20069;-56
2021/09/05 02:46:30;;;;;;;6.45;2.33;;;;;;;;;;4983102;28;20030;-56
2021/09/05 02:48:56;;;;;;;6.68;2.33;;;;;;;;;;4982145;28;20141;-53
2021/09/05 02:51:22;;;;;;;7.13;2.58;;;;;;;;;;4983322;28;20737;-56
2021/09/05 02:53:48;;;;;;;12.10;2.40;;;;;;;;;;4985099;28;20883;-55
2021/09/05 02:56:13;;;;;;;5.75;2.50;;;;;;;;;;4984834;28;20073;-56
2021/09/05 02:58:39;;;;;;;5.88;2.10;;;;;;;;;;4982374;28;20063;-55
2021/09/05 03:01:05;;;;;;;7.63;2.25;;;;;;;;;;4984098;28;20553;-56
2021/09/05 03:03:31;;;;;;;6.97;2.10;;;;;;;;;;4984255;28;20654;-56
2021/09/05 03:05:57;;;;;;;6.03;2.47;;;;;;;;;;4984244;28;20060;-56
2021/09/05 03:08:23;;;;;;;5.57;2.33;;;;;;;;;;4968430;28;20038;-57
2021/09/05 03:10:49;;;;;;;6.00;2.33;;;;;;;;;;4984144;28;20046;-57
2021/09/05 03:13:14;;;;;;;6.75;2.28;;;;;;;;;;4982544;28;20077;-56
2021/09/05 03:15:40;;;;;;;9.20;2.20;;;;;;;;;;4982433;28;20046;-56
2021/09/05 03:18:06;;;;;;;5.82;2.28;;;;;;;;;;5003438;28;20077;-55
2021/09/05 03:20:32;;;;;;;7.43;2.30;;;;;;;;;;5002318;28;20037;-57
2021/09/05 03:22:58;;;;;;;7.63;2.38;;;;;;;;;;5000848;28;20057;-56
2021/09/05 03:25:24;;;;;;;6.30;2.72;;;;;;;;;;5001496;28;20042;-55
2021/09/05 03:27:50;;;;;;;9.50;2.28;;;;;;;;;;5004340;28;20215;-56
2021/09/05 03:30:15;;;;;;;7.10;2.50;;;;;;;;;;5004108;28;20033;-57
2021/09/05 03:32:41;;;;;;;4.60;2.03;;;;;;;;;;5001521;28;20614;-54
2021/09/05 03:35:07;;;;;;;5.95;2.78;;;;;;;;;;5003333;28;20715;-54
2021/09/05 03:37:33;;;;;;;5.82;2.42;;;;;;;;;;5000596;28;20041;-56
2021/09/05 03:39:59;;;;;;;4.28;1.55;;;;;;;;;;5002978;28;20053;-57
2021/09/05 03:42:25;;;;;;;8.32;2.03;;;;;;;;;;5001211;28;20412;-59
2021/09/05 03:44:51;;;;;;;5.78;2.10;;;;;;;;;;5001571;28;20100;-56
2021/09/05 03:47:17;;;;;;;4.70;1.73;;;;;;;;;;5002481;28;20235;-56
2021/09/05 03:49:43;;;;;;;4.97;2.17;;;;;;;;;;5001201;28;20065;-57
2021/09/05 03:52:08;;;;;;;6.45;1.95;;;;;;;;;;5000912;28;20041;-57
2021/09/05 03:54:34;;;;;;;5.93;2.50;;;;;;;;;;5000234;28;20498;-57
2021/09/05 03:57:00;;;;;;;7.30;2.80;;;;;;;;;;5001461;28;20270;-54
2021/09/05 03:59:26;;;;;;;7.68;3.10;;;;;;;;;;5001375;28;20034;-56
2021/09/05 04:01:52;;;;;;;9.45;3.35;;;;;;;;;;5001332;28;20061;-56
2021/09/05 04:04:17;;;;;;;6.82;3.22;;;;;;;;;;5000992;28;20046;-56
2021/09/05 04:06:49;;;;;;;13.65;3.95;;;;;;;;;;5000142;28;20037;-57
2021/09/05 04:10:08;;;;;;;8.05;3.33;;;;;;;;;;5001611;28;20048;-56
2021/09/05 04:12:03;;;;;;;9.48;3.05;;;;;;;;;;4999445;28;20162;-56
2021/09/05 04:14:29;;;;;;;9.75;2.55;;;;;;;;;;4997600;28;20046;-55
2021/09/05 04:16:55;;;;;;;10.02;2.72;;;;;;;;;;5000083;28;20057;-56
2021/09/05 04:19:21;;;;;;;7.45;2.28;;;;;;;;;;4999103;28;20049;-56
2021/09/05 04:21:47;;;;;;;5.63;2.30;;;;;;;;;;4999114;28;20088;-57
2021/09/05 04:24:12;;;;;;;5.30;2.33;;;;;;;;;;4999283;28;20087;-55
2021/09/05 04:26:38;;;;;;;5.43;2.30;;;;;;;;;;4998570;28;20046;-57
2021/09/05 04:29:04;;;;;;;5.53;2.38;;;;;;;;;;5002464;28;20038;-54
2021/09/05 04:31:30;;;;;;;6.85;2.53;;;;;;;;;;4998105;28;20041;-56
2021/09/05 04:33:55;;;;;;;5.38;2.20;;;;;;;;;;4999836;28;20057;-57
2021/09/05 04:36:21;;;;;;;7.55;2.50;;;;;;;;;;4998333;28;20034;-55
2021/09/05 04:38:47;;;;;;;6.15;2.42;;;;;;;;;;5000537;28;20049;-56
2021/09/05 04:41:13;;;;;;;4.75;2.13;;;;;;;;;;5000332;28;20064;-51
2021/09/05 04:43:38;;;;;;;5.72;2.42;;;;;;;;;;4984934;28;20056;-55
2021/09/05 04:46:04;;;;;;;4.88;2.08;;;;;;;;;;5000455;28;20038;-54
2021/09/05 04:48:30;;;;;;;7.97;2.03;;;;;;;;;;4999162;28;20042;-54
2021/09/05 04:50:56;;;;;;;7.78;2.38;;;;;;;;;;5000894;28;20073;-55
2021/09/05 04:53:22;;;;;;;6.30;2.55;;;;;;;;;;4999280;28;20057;-55
2021/09/05 04:55:48;;;;;;;6.82;2.33;;;;;;;;;;5000104;28;20206;-55
2021/09/05 04:58:13;;;;;;;4.00;1.90;;;;;;;;;;4998729;28;20121;-53
2021/09/05 05:00:39;;;;;;;4.55;2.08;;;;;;;;;;4998376;28;20041;-56
2021/09/05 05:03:05;;;;;;;7.07;2.17;;;;;;;;;;4999119;28;20041;-54
2021/09/05 05:05:31;;;;;;;6.90;2.22;;;;;;;;;;4998639;28;20080;-54
2021/09/05 05:07:57;;;;;;;5.82;2.22;;;;;;;;;;4999852;28;20318;-54
2021/09/05 05:10:23;;;;;;;6.45;2.10;;;;;;;;;;4999280;28;20074;-52
2021/09/05 05:12:48;;;;;;;5.60;2.60;;;;;;;;;;4999001;28;20061;-55
2021/09/05 05:15:14;;;;;;;5.32;2.05;;;;;;;;;;4999034;28;20129;-55
2021/09/05 05:17:40;;;;;;;4.75;2.20;;;;;;;;;;4999228;28;21053;-54
2021/09/05 05:20:06;;;;;;;5.25;2.35;;;;;;;;;;4999942;28;20085;-55
2021/09/05 05:22:32;;;;;;;5.57;2.22;;;;;;;;;;4998929;28;20587;-55
2021/09/05 05:24:57;;;;;;;5.47;2.50;;;;;;;;;;4998851;28;20088;-55
2021/09/05 05:27:23;;;;;;;4.28;2.05;;;;;;;;;;4999405;28;20584;-54
2021/09/05 05:29:49;;;;;;;5.25;2.15;;;;;;;;;;4999238;28;20045;-58
2021/09/05 05:32:15;;;;;;;5.20;2.00;;;;;;;;;;4998855;28;20104;-54
2021/09/05 05:34:41;;;;;;;6.10;2.40;;;;;;;;;;4999854;28;20538;-52
2021/09/05 05:37:06;;;;;;;4.63;2.08;;;;;;;;;;4998416;28;20049;-53
2021/09/05 05:39:32;;;;;;;5.57;2.40;;;;;;;;;;4999210;28;20041;-55
2021/09/05 05:41:58;;;;;;;5.85;1.80;;;;;;;;;;4999059;28;20073;-55
2021/09/05 05:44:24;;;;;;;4.55;2.15;;;;;;;;;;4998505;28;20054;-55
2021/09/05 05:46:50;;;;;;;4.72;2.10;;;;;;;;;;4999106;28;20038;-54
2021/09/05 05:49:16;;;;;;;5.28;1.67;;;;;;;;;;5001044;28;20543;-55
2021/09/05 05:51:41;;;;;;;4.72;2.03;;;;;;;;;;4998460;28;20038;-56
2021/09/05 05:54:07;;;;;;;4.78;2.10;;;;;;;;;;4999615;28;20052;-56
2021/09/05 05:56:33;;;;;;;4.25;1.75;;;;;;;;;;4998729;28;20034;-56
2021/09/05 05:58:59;;;;;;;5.05;2.10;;;;;;;;;;4998408;28;20054;-56
2021/09/05 06:01:25;;;;;;;5.05;2.15;;;;;;;;;;4996897;28;20487;-56
2021/09/05 06:03:51;;;;;;;5.60;2.28;;;;;;;;;;4999604;28;20065;-56
2021/09/05 06:06:16;;;;;;;5.45;1.75;;;;;;;;;;4996691;28;20038;-56
2021/09/05 06:08:42;;;;;;;4.53;2.13;;;;;;;;;;5001290;28;20051;-55
2021/09/05 06:11:08;;;;;;;4.75;1.90;;;;;;;;;;5003207;28;20069;-56
2021/09/05 06:13:34;;;;;;;5.95;2.25;;;;;;;;;;5001470;28;20042;-56
2021/09/05 06:16:00;;;;;;;4.53;2.10;;;;;;;;;;4984968;28;20073;-56
2021/09/05 06:18:25;;;;;;;6.25;2.45;;;;;;;;;;5000503;28;20041;-56
2021/09/05 06:20:51;;;;;;;4.75;2.20;;;;;;;;;;5003886;28;20615;-57
2021/09/05 06:23:17;;;;;;;4.97;1.95;;;;;;;;;;4986183;28;20134;-56
2021/09/05 06:25:44;;;;;;;4.72;2.05;;;;;;;;;;5002622;28;20597;-56
2021/09/05 06:28:09;;;;;;;5.30;2.20;;;;;;;;;;5005020;28;20397;-55
2021/09/05 06:30:35;;;;;;;4.30;2.00;;;;;;;;;;5002612;28;20046;-57
2021/09/05 06:33:01;;;;;;;4.97;2.05;;;;;;;;;;5004462;28;20140;-56
2021/09/05 06:35:28;;;;;;;4.13;1.80;;;;;;;;;;4976870;28;20042;-54
2021/09/05 06:37:53;;;;;;;4.93;2.00;;;;;;;;;;5003327;28;20053;-56
2021/09/05 06:40:19;;;;;;;5.97;1.90;;;;;;;;;;5002879;28;20038;-56
2021/09/05 06:42:45;;;;;;;5.88;2.20;;;;;;;;;;5001339;28;20145;-56
2021/09/05 06:45:11;;;;;;;4.80;2.13;;;;;;;;;;5002567;28;20044;-56
2021/09/05 06:47:37;;;;;;;4.30;2.13;;;;;;;;;;5000966;28;20054;-56
2021/09/05 06:50:03;;;;;;;4.55;2.10;;;;;;;;;;5002269;28;20134;-55
2021/09/05 06:52:29;;;;;;;6.05;2.13;;;;;;;;;;4981036;28;20866;-55
2021/09/05 06:54:57;;;;;;;10.80;2.35;;;;;;;;;;5002509;28;20046;-55
2021/09/05 06:57:23;;;;;;;5.53;2.22;;;;;;;;;;5001336;28;20096;-56
2021/09/05 06:59:49;;;;;;;4.13;2.10;;;;;;;;;;5001580;28;20064;-56
2021/09/05 07:02:17;;;;;;;7.28;2.10;;;;;;;;;;5001852;28;20029;-55
2021/09/05 07:04:43;;;;;;;4.95;2.10;;;;;;;;;;5001707;28;20129;-57
2021/09/05 07:07:09;;;;;;;6.03;2.25;;;;;;;;;;5002816;28;20057;-55
2021/09/05 07:09:35;;;;;;;6.72;2.65;;;;;;;;;;5001799;28;20034;-56
2021/09/05 07:12:00;;;;;;;4.75;2.15;;;;;;;;;;5000784;28;20595;-57
2021/09/05 07:14:26;;;;;;;4.85;2.40;;;;;;;;;;5001440;28;20034;-56
2021/09/05 07:16:52;;;;;;;4.68;2.05;;;;;;;;;;5002340;28;20061;-56
2021/09/05 07:19:18;;;;;;;7.13;2.72;;;;;;;;;;5001929;28;20054;-53
2021/09/05 07:21:44;;;;;;;5.70;2.50;;;;;;;;;;5000109;28;20053;-54
2021/09/05 07:24:09;;;;;;;5.32;2.55;;;;;;;;;;5002132;28;20053;-56
2021/09/05 07:26:37;;;;;;;6.13;2.13;;;;;;;;;;5001791;28;20080;-55
2021/09/05 07:29:03;;;;;;;5.90;2.17;;;;;;;;;;5001162;28;20476;-57
2021/09/05 07:31:28;;;;;;;4.78;2.17;;;;;;;;;;5000122;28;20030;-56
2021/09/05 07:33:54;;;;;;;5.88;2.53;;;;;;;;;;5001493;28;20503;-56
2021/09/05 07:36:20;;;;;;;5.78;2.50;;;;;;;;;;5000485;28;20046;-56
2021/09/05 07:38:46;;;;;;;4.70;2.15;;;;;;;;;;5001056;28;20049;-56
2021/09/05 07:41:13;;;;;;;5.28;2.28;;;;;;;;;;4980962;28;20873;-57
2021/09/05 07:43:40;;;;;;;7.55;2.13;;;;;;;;;;5000658;28;20061;-56
2021/09/05 07:46:05;;;;;;;6.40;2.65;;;;;;;;;;5001965;28;20037;-56
2021/09/05 07:48:31;;;;;;;5.93;2.42;;;;;;;;;;5001262;28;20057;-56
2021/09/05 07:50:57;;;;;;;8.27;2.50;;;;;;;;;;5001468;28;20038;-57
2021/09/05 07:53:23;;;;;;;5.50;2.38;;;;;;;;;;5000539;28;20381;-57
2021/09/05 07:55:49;;;;;;;4.70;2.47;;;;;;;;;;5000960;28;20061;-54
2021/09/05 07:58:14;;;;;;;5.68;2.20;;;;;;;;;;5002680;28;20056;-56
2021/09/05 08:00:40;;;;;;;4.95;2.45;;;;;;;;;;5000917;28;20535;-57
2021/09/05 08:03:06;;;;;;;5.60;2.45;;;;;;;;;;5001195;28;21924;-55
2021/09/05 08:05:32;;;;;;;4.43;2.05;;;;;;;;;;5000461;28;20034;-55
2021/09/05 08:07:58;;;;;;;4.90;2.58;;;;;;;;;;5002496;28;20532;-56
2021/09/05 08:10:24;;;;;;;4.97;2.30;;;;;;;;;;4999908;28;20539;-56
2021/09/05 08:12:49;;;;;;;5.88;2.40;;;;;;;;;;5002641;28;20057;-54
2021/09/05 08:15:15;;;;;;;5.20;2.45;;;;;;;;;;5002120;28;20066;-56
2021/09/05 08:17:41;;;;;;;4.53;2.13;;;;;;;;;;4999993;28;20066;-55
2021/09/05 08:20:07;;;;;;;7.07;2.50;;;;;;;;;;5001695;28;20041;-56
2021/09/05 08:22:33;;;;;;;6.32;2.60;;;;;;;;;;5000023;28;20052;-56
2021/09/05 08:24:59;;;;;;;5.18;2.35;;;;;;;;;;5000644;28;20058;-56
2021/09/05 08:27:25;;;;;;;4.53;2.22;;;;;;;;;;5000172;28;20095;-56
2021/09/05 08:29:50;;;;;;;4.88;2.40;;;;;;;;;;5001772;28;20127;-56
2021/09/05 08:32:16;;;;;;;5.20;2.35;;;;;;;;;;4999794;28;20053;-55
2021/09/05 08:34:42;;;;;;;4.80;2.28;;;;;;;;;;4983294;28;20080;-55
2021/09/05 08:37:08;;;;;;;4.07;1.92;;;;;;;;;;5001118;28;20128;-56
2021/09/05 08:39:34;;;;;;;4.18;2.03;;;;;;;;;;5001354;28;20042;-56
2021/09/05 08:42:00;;;;;;;5.55;2.40;;;;;;;;;;5002525;28;20900;-53
2021/09/05 08:44:25;;;;;;;6.75;2.63;;;;;;;;;;5000779;28;20073;-56
2021/09/05 08:46:52;;;;;;;5.55;2.38;;;;;;;;;;5001121;28;20404;-56
2021/09/05 08:49:23;;;;;;;7.00;2.35;;;;;;;;;;5001521;28;20040;-55
2021/09/05 08:51:48;;;;;;;6.72;2.25;;;;;;;;;;5001277;28;20034;-55
2021/09/05 08:54:14;;;;;;;4.72;2.17;;;;;;;;;;5001231;28;20108;-55
2021/09/05 08:56:40;;;;;;;7.22;2.33;;;;;;;;;;5001808;28;20045;-55
2021/09/05 08:59:06;;;;;;;6.32;2.40;;;;;;;;;;4966836;28;20509;-55
2021/09/05 09:01:31;;;;;;;5.80;2.35;;;;;;;;;;4999574;28;20042;-55
2021/09/05 09:04:09;;;;;;;5.32;2.42;;;;;;;;;;5000602;28;20772;-55
2021/09/05 09:06:38;;;;;;;5.35;2.55;;;;;;;;;;4999356;28;20125;-55
2021/09/05 09:09:05;;;;;;;6.45;2.40;;;;;;;;;;5000166;28;20072;-54
2021/09/05 09:11:49;;;;;;;4.55;2.40;;;;;;;;;;4999965;28;20087;-54
2021/09/05 09:14:15;;;;;;;6.95;2.67;;;;;;;;;;5001490;28;20100;-55
2021/09/05 09:16:41;;;;;;;9.68;2.33;;;;;;;;;;5000203;28;20081;-56
2021/09/05 09:19:07;;;;;;;5.43;2.67;;;;;;;;;;4999428;28;20607;-55
2021/09/05 09:21:38;;;;;;;5.82;2.25;;;;;;;;;;4999862;28;20044;-54
2021/09/05 09:24:12;;;;;;;8.10;2.80;;;;;;;;;;4999928;28;20042;-55
2021/09/05 09:26:38;;;;;;;5.55;2.70;;;;;;;;;;5000272;28;20038;-53
2021/09/05 09:29:14;;;;;;;7.70;2.42;;;;;;;;;;4979015;28;20040;-54
2021/09/05 09:31:40;;;;;;;8.88;2.60;;;;;;;;;;4998514;28;20053;-56
2021/09/05 09:34:06;;;;;;;6.78;2.35;;;;;;;;;;4997229;28;20699;-55
2021/09/05 09:36:32;;;;;;;5.68;2.45;;;;;;;;;;4999406;28;20126;-56
2021/09/05 09:38:59;;;;;;;5.38;2.28;;;;;;;;;;4979508;28;20046;-55
2021/09/05 09:41:29;;;;;;;5.10;2.10;;;;;;;;;;4996550;28;21059;-56
2021/09/05 09:43:59;;;;;;;6.15;2.50;;;;;;;;;;4997119;28;20050;-55
2021/09/05 09:46:29;;;;;;;6.68;2.13;;;;;;;;;;4998959;28;20038;-55
2021/09/05 09:48:56;;;;;;;7.70;2.70;;;;;;;;;;4999039;28;20781;-54
2021/09/05 09:51:22;;;;;;;5.65;2.50;;;;;;;;;;4998360;28;20042;-54
2021/09/05 09:53:48;;;;;;;7.78;2.53;;;;;;;;;;4998952;28;20042;-55
2021/09/05 09:56:18;;;;;;;5.03;2.58;;;;;;;;;;4999688;28;20049;-52
2021/09/05 09:58:45;;;;;;;5.30;2.33;;;;;;;;;;4997642;28;20111;-54
2021/09/05 10:01:13;;;;;;;5.70;2.45;;;;;;;;;;4999826;28;20046;-54
2021/09/05 10:03:41;;;;;;;6.22;2.42;;;;;;;;;;4997988;28;20050;-54
2021/09/05 10:06:07;;;;;;;7.22;2.97;;;;;;;;;;4999463;28;20117;-55
2021/09/05 10:08:34;;;;;;;8.10;2.85;;;;;;;;;;4978812;28;20073;-54
2021/09/05 10:11:00;;;;;;;6.43;2.60;;;;;;;;;;4999726;28;20042;-52
2021/09/05 10:13:33;;;;;;;6.82;3.10;;;;;;;;;;4985429;28;20119;-53
2021/09/05 10:16:00;;;;;;;;;;;;;;;;;;4999443;28;20134;-55
2021/09/05 10:18:26;;;;;;;6.35;3.10;;;;;;;;;;4998560;28;20825;-55
2021/09/05 10:20:52;;;;;;;7.93;3.30;;;;;;;;;;4999753;28;20095;-55
2021/09/05 10:23:37;;;;;;;6.18;3.08;;;;;;;;;;4998496;28;20509;-55
2021/09/05 10:26:07;;;;;;;7.07;3.13;;;;;;;;;;4998692;28;20044;-55
2021/09/05 10:28:34;;;;;;;8.27;3.05;;;;;;;;;;4997295;28;20050;-56
2021/09/05 10:31:00;;;;;;;6.82;3.58;;;;;;;;;;4999753;28;20038;-54
2021/09/05 10:33:33;;;;;;;11.88;4.00;;;;;;;;;;4998274;28;20045;-55
2021/09/05 10:35:58;;;;;;;;;;;;;;;;;;4999368;28;20323;-54
2021/09/05 10:38:31;;;;;;;7.10;3.92;;;;;;;;;;4996938;28;19943;-54
2021/09/05 10:40:58;;;;;;;9.23;4.00;;;;;;;;;;5000082;28;20425;-55
2021/09/05 10:43:44;;;;;;;7.93;4.25;;;;;;;;;;4997729;28;20549;-55
2021/09/05 10:46:09;;;;;;;6.80;3.45;;;;;;;;;;4999020;28;20065;-54
2021/09/05 10:48:35;;;;;;;9.75;4.32;;;;;;;;;;4997676;28;20125;-55
2021/09/05 10:51:05;;;;;;;7.97;4.18;;;;;;;;;;4997846;28;20044;-55
2021/09/05 10:53:34;;;;;;;7.70;3.63;;;;;;;;;;4998612;28;20091;-55
2021/09/05 10:56:09;;;;;;;10.48;4.25;;;;;;;;;;5001772;28;20069;-55
2021/09/05 10:58:41;;;;;;;9.50;4.15;;;;;;;;;;5001296;28;20088;-55
2021/09/05 11:01:09;;;;;;;6.03;3.53;;;;;;;;;;5002798;28;20517;-55
2021/09/05 11:03:55;;;;;;;9.55;4.28;;;;;;;;;;5001975;28;20157;-55
2021/09/05 11:06:40;;;;;;;7.78;4.47;;;;;;;;;;5002362;28;20041;-54
2021/09/05 11:09:24;;;;;;;8.98;4.38;;;;;;;;;;5001434;28;20034;-55
2021/09/05 11:11:55;;;;;;;9.48;4.97;;;;;;;;;;5002831;28;20033;-55
2021/09/05 11:14:36;;;;;;;9.18;5.15;;;;;;;;;;5002292;28;20076;-54
2021/09/05 11:17:07;;;;;;;12.30;4.75;;;;;;;;;;5002378;28;20091;-53
2021/09/05 11:19:36;;;;;;;11.32;5.72;;;;;;;;;;4973110;28;20049;-54
2021/09/05 11:22:06;;;;;;;10.45;5.15;;;;;;;;;;5003440;28;20058;-55
2021/09/05 11:24:31;;;;;;;10.18;4.82;;;;;;;;;;4997211;28;20452;-56
2021/09/05 11:27:15;;;;;;;11.02;5.32;;;;;;;;;;5002370;28;20037;-55
2021/09/05 11:29:41;;;;;;;13.27;5.30;;;;;;;;;;5002879;28;20053;-55
2021/09/05 11:32:08;;;;;;;12.68;6.00;;;;;;;;;;5002397;28;20478;-55
2021/09/05 11:34:35;;;;;;;10.45;5.60;;;;;;;;;;5001773;28;20042;-54
2021/09/05 11:37:01;;;;;;;9.93;4.95;;;;;;;;;;5001960;28;20045;-56
2021/09/05 11:39:27;;;;;;;11.70;5.53;;;;;;;;;;5000806;28;20056;-54
2021/09/05 11:41:54;;;;;;;8.73;4.82;;;;;;;;;;5003099;28;20037;-52
2021/09/05 11:44:36;;;;;;;12.18;5.32;;;;;;;;;;5001217;28;20119;-55
2021/09/05 11:47:09;;;;;;;12.05;6.00;;;;;;;;;;5001684;28;20045;-55
2021/09/05 11:49:35;;;;;;;9.60;5.57;;;;;;;;;;4999882;28;20050;-55
2021/09/05 11:52:01;;;;;;;11.30;5.90;;;;;;;;;;4999832;28;20057;-55
2021/09/05 11:54:27;;;;;;;10.65;6.05;;;;;;;;;;5001004;28;20153;-54
2021/09/05 11:56:54;;;;;;;13.40;6.28;;;;;;;;;;5002011;28;20646;-55
2021/09/05 11:59:20;;;;;;;19.38;6.28;;;;;;;;;;5001460;28;20041;-57
2021/09/05 12:01:50;;;;;;;11.00;5.32;;;;;;;;;;5003886;28;20104;-56
2021/09/05 12:04:16;;;;;;;12.30;5.93;;;;;;;;;;5002401;28;20056;-54
2021/09/05 12:06:42;;;;;;;11.32;6.07;;;;;;;;;;5000954;28;20034;-56
2021/09/05 12:09:08;;;;;;;10.20;5.68;;;;;;;;;;5001524;28;20713;-56
2021/09/05 12:12:06;;;;;;;15.55;6.00;;;;;;;;;;4981012;28;20040;-55
2021/09/05 12:14:33;;;;;;;17.00;6.40;;;;;;;;;;4949428;28;20034;-55
2021/09/05 12:16:59;;;;;;;20.80;6.35;;;;;;;;;;5002197;28;20341;-56
2021/09/05 12:19:25;;;;;;;12.20;5.65;;;;;;;;;;5000040;28;20034;-55
2021/09/05 12:22:00;;;;;;;12.05;6.15;;;;;;;;;;5002520;28;20049;-56
2021/09/05 12:24:26;;;;;;;12.63;6.43;;;;;;;;;;4999779;28;20042;-56
2021/09/05 12:26:51;;;;;;;14.40;5.80;;;;;;;;;;5001256;28;20057;-56
2021/09/05 12:29:29;;;;;;;10.93;5.97;;;;;;;;;;4999790;28;20042;-52
2021/09/05 12:32:00;;;;;;;12.73;6.63;;;;;;;;;;5000011;28;20068;-53
2021/09/05 12:34:38;;;;;;;11.30;5.97;;;;;;;;;;4999216;28;20397;-55
2021/09/05 12:37:21;;;;;;;12.40;6.18;;;;;;;;;;5000323;28;20382;-55
2021/09/05 12:39:48;;;;;;;10.77;6.18;;;;;;;;;;4981612;28;20047;-55
2021/09/05 12:42:15;;;;;;;11.25;6.00;;;;;;;;;;5001770;28;20042;-55
2021/09/05 12:44:47;;;;;;;10.95;6.13;;;;;;;;;;4999271;28;20068;-61
2021/09/05 12:47:29;;;;;;;11.93;6.28;;;;;;;;;;5000367;28;20045;-56
2021/09/05 12:49:56;;;;;;;12.77;6.93;;;;;;;;;;4998037;28;20045;-55
2021/09/05 12:52:24;;;;;;;11.70;6.25;;;;;;;;;;4998874;28;20037;-56
2021/09/05 12:54:50;;;;;;;11.02;6.68;;;;;;;;;;4999741;28;20254;-55
2021/09/05 12:57:16;;;;;;;11.43;6.13;;;;;;;;;;5001180;28;20136;-55
2021/09/05 12:59:42;;;;;;;12.57;6.50;;;;;;;;;;4998979;28;20041;-55
2021/09/05 13:02:07;;;;;;;14.18;6.65;;;;;;;;;;5000876;28;22870;-55
2021/09/05 13:04:33;;;;;;;13.48;6.25;;;;;;;;;;4999630;28;20487;-56
2021/09/05 13:06:59;;;;;;;13.10;7.10;;;;;;;;;;5000273;28;20041;-55
2021/09/05 13:09:25;;;;;;;11.10;6.57;;;;;;;;;;4999712;28;20097;-56
2021/09/05 13:11:51;;;;;;;12.27;6.82;;;;;;;;;;5001121;28;20156;-57
2021/09/05 13:14:17;;;;;;;19.23;7.78;;;;;;;;;;4999807;28;20030;-56
2021/09/05 13:16:43;;;;;;;13.30;7.15;;;;;;;;;;4999089;28;20177;-57
2021/09/05 13:19:09;;;;;;;14.63;7.80;;;;;;;;;;4999835;28;20045;-56
2021/09/05 13:21:35;;;;;;;15.65;7.80;;;;;;;;;;4998941;28;20038;-53
2021/09/05 13:24:01;;;;;;;16.13;7.22;;;;;;;;;;4999522;28;20049;-53
2021/09/05 13:26:27;;;;;;;12.90;7.80;;;;;;;;;;4998693;28;20152;-56
2021/09/05 13:28:54;;;;;;;11.90;7.43;;;;;;;;;;4978359;28;20042;-56
2021/09/05 13:31:25;;;;;;;15.13;7.95;;;;;;;;;;4998194;28;20054;-53
2021/09/05 13:33:50;;;;;;;14.85;7.53;;;;;;;;;;5000059;28;20038;-56
2021/09/05 13:36:16;;;;;;;13.40;8.05;;;;;;;;;;5001963;28;20432;-55
2021/09/05 13:38:42;;;;;;;13.65;7.75;;;;;;;;;;4998825;28;21840;-55
2021/09/05 13:41:08;;;;;;;18.35;7.95;;;;;;;;;;5000746;28;20053;-57
2021/09/05 13:43:34;;;;;;;14.15;7.70;;;;;;;;;;5000061;28;20091;-55
2021/09/05 13:46:00;;;;;;;13.23;6.78;;;;;;;;;;4999791;28;20201;-56
2021/09/05 13:48:26;;;;;;;15.07;7.63;;;;;;;;;;4998387;28;20140;-56
2021/09/05 13:50:52;;;;;;;13.10;7.88;;;;;;;;;;4999705;28;20042;-55
2021/09/05 13:53:17;;;;;;;14.23;8.20;;;;;;;;;;4999505;28;20074;-56
2021/09/05 13:55:43;;;;;;;13.30;7.95;;;;;;;;;;4998671;28;20121;-53
2021/09/05 13:58:09;;;;;;;12.90;8.27;;;;;;;;;;5000623;28;20615;-56
2021/09/05 14:00:35;;;;;;;13.55;7.95;;;;;;;;;;4998610;28;20044;-56
2021/09/05 14:03:00;;;;;;;15.13;8.45;;;;;;;;;;5000060;28;20056;-55
2021/09/05 14:05:26;;;;;;;13.80;8.30;;;;;;;;;;4997979;28;20061;-55
2021/09/05 14:07:53;;;;;;;17.13;9.25;;;;;;;;;;4998917;28;20041;-56
2021/09/05 14:10:18;;;;;;;15.95;8.50;;;;;;;;;;4997903;28;20046;-56
2021/09/05 14:12:44;;;;;;;16.83;9.15;;;;;;;;;;4999813;28;20070;-55
2021/09/05 14:15:10;;;;;;;18.85;8.23;;;;;;;;;;4999828;28;21035;-52
2021/09/05 14:17:39;;;;;;;17.25;8.90;;;;;;;;;;4998238;28;20061;-56
2021/09/05 14:20:05;;;;;;;17.30;8.23;;;;;;;;;;4998440;28;20230;-52
2021/09/05 14:22:31;;;;;;;12.60;7.18;;;;;;;;;;4999483;28;20049;-56
2021/09/05 14:24:57;;;;;;;14.57;8.55;;;;;;;;;;5000599;28;20053;-56
2021/09/05 14:27:30;;;;;;;14.18;8.38;;;;;;;;;;4998907;28;20026;-56
2021/09/05 14:35:29;;;;;;;15.70;8.13;;;;;;;;;;5002915;28;20129;-55
2021/09/05 14:56:20;;;;;;;13.55;8.25;;;;;;;;;;5003309;28;20229;-53
2021/09/05 14:59:00;;;;;;;14.23;8.48;;;;;;;;;;5004321;28;20050;-55
2021/09/05 15:01:32;;;;;;;13.90;7.88;;;;;;;;;;5004036;28;20037;-54
2021/09/05 15:04:06;;;;;;;17.88;7.32;;;;;;;;;;5003856;28;20053;-56